sensor_id;sensor_type;location;lat;lon;timestamp;P1;durP1;ratioP1;P2;durP2;ratioP2
54921;SDS011;40824;45.116;21.296;2023-01-13T00:00:46;81.72;;;54.05;;
54921;SDS011;40824;45.116;21.296;2023-01-13T00:03:12;81.22;;;54.13;;
54921;SDS011;40824;45.116;21.296;2023-01-13T00:05:38;85.20;;;56.80;;
54921;SDS011;40824;45.116;21.296;2023-01-13T00:08:04;78.72;;;52.50;;
54921;SDS011;40824;45.116;21.296;2023-01-13T00:10:34;82.38;;;55.20;;
54921;SDS011;40824;45.116;21.296;2023-01-13T00:13:00;80.78;;;54.60;;
54921;SDS011;40824;45.116;21.296;2023-01-13T00:15:28;85.43;;;58.65;;
54921;SDS011;40824;45.116;21.296;2023-01-13T00:17:55;85.35;;;58.05;;
54921;SDS011;40824;45.116;21.296;2023-01-13T00:20:21;87.57;;;57.55;;
54921;SDS011;40824;45.116;21.296;2023-01-13T00:22:47;94.53;;;61.80;;
54921;SDS011;40824;45.116;21.296;2023-01-13T00:25:13;87.22;;;59.85;;
54921;SDS011;40824;45.116;21.296;2023-01-13T00:27:39;90.88;;;60.58;;
54921;SDS011;40824;45.116;21.296;2023-01-13T00:30:06;90.18;;;60.10;;
54921;SDS011;40824;45.116;21.296;2023-01-13T00:32:32;88.13;;;58.20;;
54921;SDS011;40824;45.116;21.296;2023-01-13T00:34:58;80.13;;;54.80;;
54921;SDS011;40824;45.116;21.296;2023-01-13T00:37:24;77.38;;;53.75;;
54921;SDS011;40824;45.116;21.296;2023-01-13T00:39:50;80.78;;;54.20;;
54921;SDS011;40824;45.116;21.296;2023-01-13T00:42:17;79.20;;;54.78;;
54921;SDS011;40824;45.116;21.296;2023-01-13T00:45:02;86.90;;;55.97;;
54921;SDS011;40824;45.116;21.296;2023-01-13T00:47:29;85.45;;;56.95;;
54921;SDS011;40824;45.116;21.296;2023-01-13T00:49:56;81.72;;;55.70;;
54921;SDS011;40824;45.116;21.296;2023-01-13T00:52:22;81.97;;;54.10;;
54921;SDS011;40824;45.116;21.296;2023-01-13T00:54:48;83.43;;;55.63;;
54921;SDS011;40824;45.116;21.296;2023-01-13T00:57:14;94.05;;;59.40;;
54921;SDS011;40824;45.116;21.296;2023-01-13T00:59:41;82.65;;;55.30;;
54921;SDS011;40824;45.116;21.296;2023-01-13T01:02:09;92.38;;;58.22;;
54921;SDS011;40824;45.116;21.296;2023-01-13T01:04:35;97.93;;;62.15;;
54921;SDS011;40824;45.116;21.296;2023-01-13T01:07:01;89.32;;;59.13;;
54921;SDS011;40824;45.116;21.296;2023-01-13T01:09:27;94.22;;;61.13;;
54921;SDS011;40824;45.116;21.296;2023-01-13T01:11:57;91.15;;;60.53;;
54921;SDS011;40824;45.116;21.296;2023-01-13T01:14:24;88.00;;;58.50;;
54921;SDS011;40824;45.116;21.296;2023-01-13T01:16:51;91.45;;;59.53;;
54921;SDS011;40824;45.116;21.296;2023-01-13T01:19:18;92.35;;;61.33;;
54921;SDS011;40824;45.116;21.296;2023-01-13T01:21:44;98.95;;;62.17;;
54921;SDS011;40824;45.116;21.296;2023-01-13T01:24:10;99.65;;;64.43;;
54921;SDS011;40824;45.116;21.296;2023-01-13T01:26:40;98.53;;;63.85;;
54921;SDS011;40824;45.116;21.296;2023-01-13T01:29:07;92.18;;;62.47;;
54921;SDS011;40824;45.116;21.296;2023-01-13T01:31:33;96.15;;;61.10;;
54921;SDS011;40824;45.116;21.296;2023-01-13T01:34:00;95.85;;;64.00;;
54921;SDS011;40824;45.116;21.296;2023-01-13T01:36:27;96.85;;;64.32;;
54921;SDS011;40824;45.116;21.296;2023-01-13T01:38:57;95.57;;;62.35;;
54921;SDS011;40824;45.116;21.296;2023-01-13T01:41:24;96.97;;;64.22;;
54921;SDS011;40824;45.116;21.296;2023-01-13T01:51:36;96.72;;;61.97;;
54921;SDS011;40824;45.116;21.296;2023-01-13T01:54:04;89.88;;;63.47;;
54921;SDS011;40824;45.116;21.296;2023-01-13T01:56:32;95.35;;;61.17;;
54921;SDS011;40824;45.116;21.296;2023-01-13T01:58:59;88.47;;;58.53;;
54921;SDS011;40824;45.116;21.296;2023-01-13T02:01:25;88.63;;;59.63;;
54921;SDS011;40824;45.116;21.296;2023-01-13T02:03:56;93.47;;;60.97;;
54921;SDS011;40824;45.116;21.296;2023-01-13T02:06:24;92.10;;;60.33;;
54921;SDS011;40824;45.116;21.296;2023-01-13T02:08:50;93.63;;;60.70;;
54921;SDS011;40824;45.116;21.296;2023-01-13T02:11:33;92.57;;;61.60;;
54921;SDS011;40824;45.116;21.296;2023-01-13T02:14:19;89.93;;;60.40;;
54921;SDS011;40824;45.116;21.296;2023-01-13T02:16:47;90.97;;;59.13;;
54921;SDS011;40824;45.116;21.296;2023-01-13T02:19:20;93.55;;;61.83;;
54921;SDS011;40824;45.116;21.296;2023-01-13T02:35:21;91.97;;;57.75;;
54921;SDS011;40824;45.116;21.296;2023-01-13T02:37:49;90.30;;;59.00;;
54921;SDS011;40824;45.116;21.296;2023-01-13T02:43:13;94.00;;;59.90;;
54921;SDS011;40824;45.116;21.296;2023-01-13T02:46:02;87.78;;;57.17;;
54921;SDS011;40824;45.116;21.296;2023-01-13T02:48:30;89.45;;;58.75;;
54921;SDS011;40824;45.116;21.296;2023-01-13T02:50:58;90.05;;;58.42;;
54921;SDS011;40824;45.116;21.296;2023-01-13T02:53:32;91.43;;;58.08;;
54921;SDS011;40824;45.116;21.296;2023-01-13T02:55:59;86.80;;;57.97;;
54921;SDS011;40824;45.116;21.296;2023-01-13T02:58:27;84.43;;;55.55;;
54921;SDS011;40824;45.116;21.296;2023-01-13T03:00:54;85.95;;;57.30;;
54921;SDS011;40824;45.116;21.296;2023-01-13T03:03:20;81.10;;;54.03;;
54921;SDS011;40824;45.116;21.296;2023-01-13T03:05:47;89.55;;;57.30;;
54921;SDS011;40824;45.116;21.296;2023-01-13T03:08:32;85.22;;;55.15;;
54921;SDS011;40824;45.116;21.296;2023-01-13T03:11:01;86.85;;;56.55;;
54921;SDS011;40824;45.116;21.296;2023-01-13T03:15:58;80.90;;;53.70;;
54921;SDS011;40824;45.116;21.296;2023-01-13T03:21:19;85.47;;;56.35;;
54921;SDS011;40824;45.116;21.296;2023-01-13T03:26:13;82.25;;;52.55;;
54921;SDS011;40824;45.116;21.296;2023-01-13T03:28:43;83.00;;;55.15;;
54921;SDS011;40824;45.116;21.296;2023-01-13T03:31:13;82.88;;;55.85;;
54921;SDS011;40824;45.116;21.296;2023-01-13T03:33:51;83.97;;;55.65;;
54921;SDS011;40824;45.116;21.296;2023-01-13T03:36:18;82.80;;;55.05;;
54921;SDS011;40824;45.116;21.296;2023-01-13T03:38:50;86.43;;;56.90;;
54921;SDS011;40824;45.116;21.296;2023-01-13T03:41:20;80.75;;;54.72;;
54921;SDS011;40824;45.116;21.296;2023-01-13T03:43:49;85.70;;;54.38;;
54921;SDS011;40824;45.116;21.296;2023-01-13T03:49:04;82.18;;;56.97;;
54921;SDS011;40824;45.116;21.296;2023-01-13T03:51:32;84.90;;;55.47;;
54921;SDS011;40824;45.116;21.296;2023-01-13T03:54:05;92.10;;;58.92;;
54921;SDS011;40824;45.116;21.296;2023-01-13T03:56:37;87.68;;;57.65;;
54921;SDS011;40824;45.116;21.296;2023-01-13T03:59:05;95.60;;;59.05;;
54921;SDS011;40824;45.116;21.296;2023-01-13T04:06:47;91.72;;;60.72;;
54921;SDS011;40824;45.116;21.296;2023-01-13T04:09:32;85.88;;;58.08;;
54921;SDS011;40824;45.116;21.296;2023-01-13T04:14:25;90.55;;;59.10;;
54921;SDS011;40824;45.116;21.296;2023-01-13T04:16:52;92.60;;;59.17;;
54921;SDS011;40824;45.116;21.296;2023-01-13T04:19:19;89.32;;;58.30;;
54921;SDS011;40824;45.116;21.296;2023-01-13T04:21:45;83.45;;;57.30;;
54921;SDS011;40824;45.116;21.296;2023-01-13T04:24:11;88.22;;;58.58;;
54921;SDS011;40824;45.116;21.296;2023-01-13T04:26:38;92.47;;;59.03;;
54921;SDS011;40824;45.116;21.296;2023-01-13T04:29:04;88.97;;;58.90;;
54921;SDS011;40824;45.116;21.296;2023-01-13T04:31:30;85.88;;;58.15;;
54921;SDS011;40824;45.116;21.296;2023-01-13T04:33:56;86.03;;;58.08;;
54921;SDS011;40824;45.116;21.296;2023-01-13T04:36:22;87.35;;;58.80;;
54921;SDS011;40824;45.116;21.296;2023-01-13T04:38:54;89.80;;;59.30;;
54921;SDS011;40824;45.116;21.296;2023-01-13T04:41:20;91.43;;;60.58;;
54921;SDS011;40824;45.116;21.296;2023-01-13T04:43:46;98.65;;;61.50;;
54921;SDS011;40824;45.116;21.296;2023-01-13T04:46:12;89.18;;;59.90;;
54921;SDS011;40824;45.116;21.296;2023-01-13T04:48:38;97.68;;;63.70;;
54921;SDS011;40824;45.116;21.296;2023-01-13T04:51:04;100.53;;;63.17;;
54921;SDS011;40824;45.116;21.296;2023-01-13T04:53:30;115.57;;;67.40;;
54921;SDS011;40824;45.116;21.296;2023-01-13T04:55:57;105.80;;;68.18;;
54921;SDS011;40824;45.116;21.296;2023-01-13T04:58:23;111.55;;;68.63;;
54921;SDS011;40824;45.116;21.296;2023-01-13T05:00:49;110.78;;;68.68;;
54921;SDS011;40824;45.116;21.296;2023-01-13T05:03:15;117.72;;;71.18;;
54921;SDS011;40824;45.116;21.296;2023-01-13T05:05:42;131.02;;;75.20;;
54921;SDS011;40824;45.116;21.296;2023-01-13T05:08:09;120.82;;;74.57;;
54921;SDS011;40824;45.116;21.296;2023-01-13T05:10:35;129.70;;;78.93;;
54921;SDS011;40824;45.116;21.296;2023-01-13T05:13:01;119.82;;;73.88;;
54921;SDS011;40824;45.116;21.296;2023-01-13T05:15:46;121.20;;;73.05;;
54921;SDS011;40824;45.116;21.296;2023-01-13T05:18:48;122.70;;;71.93;;
54921;SDS011;40824;45.116;21.296;2023-01-13T05:21:14;122.35;;;70.97;;
54921;SDS011;40824;45.116;21.296;2023-01-13T05:23:59;108.22;;;64.18;;
54921;SDS011;40824;45.116;21.296;2023-01-13T05:26:43;105.18;;;63.03;;
54921;SDS011;40824;45.116;21.296;2023-01-13T05:29:09;98.75;;;61.63;;
54921;SDS011;40824;45.116;21.296;2023-01-13T05:31:35;94.38;;;58.63;;
54921;SDS011;40824;45.116;21.296;2023-01-13T05:34:02;89.57;;;56.70;;
54921;SDS011;40824;45.116;21.296;2023-01-13T05:36:28;82.47;;;53.10;;
54921;SDS011;40824;45.116;21.296;2023-01-13T05:38:54;78.80;;;47.55;;
54921;SDS011;40824;45.116;21.296;2023-01-13T05:41:20;78.13;;;48.97;;
54921;SDS011;40824;45.116;21.296;2023-01-13T05:44:05;82.63;;;48.45;;
54921;SDS011;40824;45.116;21.296;2023-01-13T05:46:31;76.93;;;46.58;;
54921;SDS011;40824;45.116;21.296;2023-01-13T05:48:57;80.60;;;49.15;;
54921;SDS011;40824;45.116;21.296;2023-01-13T05:51:24;82.95;;;49.80;;
54921;SDS011;40824;45.116;21.296;2023-01-13T05:53:50;79.97;;;50.22;;
54921;SDS011;40824;45.116;21.296;2023-01-13T05:56:16;85.60;;;51.92;;
54921;SDS011;40824;45.116;21.296;2023-01-13T05:58:42;82.75;;;50.53;;
54921;SDS011;40824;45.116;21.296;2023-01-13T06:01:09;76.78;;;49.63;;
54921;SDS011;40824;45.116;21.296;2023-01-13T06:03:36;78.78;;;50.05;;
54921;SDS011;40824;45.116;21.296;2023-01-13T06:06:02;81.53;;;48.92;;
54921;SDS011;40824;45.116;21.296;2023-01-13T06:08:29;82.43;;;52.65;;
54921;SDS011;40824;45.116;21.296;2023-01-13T06:10:55;87.18;;;53.97;;
54921;SDS011;40824;45.116;21.296;2023-01-13T06:13:24;81.60;;;51.05;;
54921;SDS011;40824;45.116;21.296;2023-01-13T06:15:50;80.20;;;50.67;;
54921;SDS011;40824;45.116;21.296;2023-01-13T06:18:16;82.22;;;53.53;;
54921;SDS011;40824;45.116;21.296;2023-01-13T06:20:42;75.00;;;48.90;;
54921;SDS011;40824;45.116;21.296;2023-01-13T06:23:09;83.45;;;51.58;;
54921;SDS011;40824;45.116;21.296;2023-01-13T06:25:45;83.82;;;52.75;;
54921;SDS011;40824;45.116;21.296;2023-01-13T06:28:14;72.05;;;48.53;;
54921;SDS011;40824;45.116;21.296;2023-01-13T06:30:42;73.57;;;47.92;;
54921;SDS011;40824;45.116;21.296;2023-01-13T06:33:13;71.93;;;48.60;;
54921;SDS011;40824;45.116;21.296;2023-01-13T06:35:41;68.00;;;45.08;;
54921;SDS011;40824;45.116;21.296;2023-01-13T06:38:09;67.70;;;44.00;;
54921;SDS011;40824;45.116;21.296;2023-01-13T06:40:36;57.70;;;40.83;;
54921;SDS011;40824;45.116;21.296;2023-01-13T06:43:02;61.58;;;42.17;;
54921;SDS011;40824;45.116;21.296;2023-01-13T06:45:49;66.90;;;42.20;;
54921;SDS011;40824;45.116;21.296;2023-01-13T06:48:17;62.53;;;43.15;;
54921;SDS011;40824;45.116;21.296;2023-01-13T06:50:44;64.97;;;41.13;;
54921;SDS011;40824;45.116;21.296;2023-01-13T06:53:10;61.03;;;41.30;;
54921;SDS011;40824;45.116;21.296;2023-01-13T06:55:36;63.00;;;41.17;;
54921;SDS011;40824;45.116;21.296;2023-01-13T06:58:03;59.50;;;41.42;;
54921;SDS011;40824;45.116;21.296;2023-01-13T07:00:29;68.22;;;43.65;;
54921;SDS011;40824;45.116;21.296;2023-01-13T07:03:13;62.15;;;41.25;;
54921;SDS011;40824;45.116;21.296;2023-01-13T07:05:39;66.72;;;43.08;;
54921;SDS011;40824;45.116;21.296;2023-01-13T07:08:06;75.88;;;44.95;;
54921;SDS011;40824;45.116;21.296;2023-01-13T07:10:32;73.82;;;46.72;;
54921;SDS011;40824;45.116;21.296;2023-01-13T07:13:00;74.78;;;45.35;;
54921;SDS011;40824;45.116;21.296;2023-01-13T07:15:54;60.17;;;38.85;;
54921;SDS011;40824;45.116;21.296;2023-01-13T07:18:21;57.60;;;39.90;;
54921;SDS011;40824;45.116;21.296;2023-01-13T07:20:54;58.28;;;39.00;;
54921;SDS011;40824;45.116;21.296;2023-01-13T07:23:22;67.00;;;44.33;;
54921;SDS011;40824;45.116;21.296;2023-01-13T07:25:48;56.75;;;40.45;;
54921;SDS011;40824;45.116;21.296;2023-01-13T07:28:14;62.50;;;42.10;;
54921;SDS011;40824;45.116;21.296;2023-01-13T07:30:41;62.67;;;42.72;;
54921;SDS011;40824;45.116;21.296;2023-01-13T07:33:07;67.07;;;44.97;;
54921;SDS011;40824;45.116;21.296;2023-01-13T07:35:33;64.28;;;44.78;;
54921;SDS011;40824;45.116;21.296;2023-01-13T07:37:59;56.63;;;38.28;;
54921;SDS011;40824;45.116;21.296;2023-01-13T07:40:25;58.70;;;38.78;;
54921;SDS011;40824;45.116;21.296;2023-01-13T07:42:51;54.03;;;36.95;;
54921;SDS011;40824;45.116;21.296;2023-01-13T07:45:36;51.50;;;37.50;;
54921;SDS011;40824;45.116;21.296;2023-01-13T07:48:02;53.65;;;38.22;;
54921;SDS011;40824;45.116;21.296;2023-01-13T07:50:29;52.38;;;35.85;;
54921;SDS011;40824;45.116;21.296;2023-01-13T07:52:58;53.35;;;37.80;;
54921;SDS011;40824;45.116;21.296;2023-01-13T07:55:24;52.75;;;37.80;;
54921;SDS011;40824;45.116;21.296;2023-01-13T07:57:50;54.13;;;37.08;;
54921;SDS011;40824;45.116;21.296;2023-01-13T08:00:16;53.58;;;37.88;;
54921;SDS011;40824;45.116;21.296;2023-01-13T08:02:42;50.40;;;36.55;;
54921;SDS011;40824;45.116;21.296;2023-01-13T08:05:09;55.25;;;38.15;;
54921;SDS011;40824;45.116;21.296;2023-01-13T08:07:35;54.60;;;39.85;;
54921;SDS011;40824;45.116;21.296;2023-01-13T08:10:01;54.17;;;37.33;;
54921;SDS011;40824;45.116;21.296;2023-01-13T08:12:28;59.13;;;39.15;;
54921;SDS011;40824;45.116;21.296;2023-01-13T08:15:12;55.88;;;39.28;;
54921;SDS011;40824;45.116;21.296;2023-01-13T08:17:38;61.45;;;42.20;;
54921;SDS011;40824;45.116;21.296;2023-01-13T08:20:04;56.53;;;39.30;;
54921;SDS011;40824;45.116;21.296;2023-01-13T08:22:31;60.10;;;41.95;;
54921;SDS011;40824;45.116;21.296;2023-01-13T08:24:58;51.80;;;37.25;;
54921;SDS011;40824;45.116;21.296;2023-01-13T08:27:24;56.95;;;39.20;;
54921;SDS011;40824;45.116;21.296;2023-01-13T08:29:50;53.50;;;37.08;;
54921;SDS011;40824;45.116;21.296;2023-01-13T08:32:17;56.47;;;37.50;;
54921;SDS011;40824;45.116;21.296;2023-01-13T08:34:43;49.78;;;37.45;;
54921;SDS011;40824;45.116;21.296;2023-01-13T08:37:09;56.13;;;36.85;;
54921;SDS011;40824;45.116;21.296;2023-01-13T08:39:35;55.05;;;38.00;;
54921;SDS011;40824;45.116;21.296;2023-01-13T08:42:02;54.63;;;36.03;;
54921;SDS011;40824;45.116;21.296;2023-01-13T08:44:29;49.80;;;36.65;;
54921;SDS011;40824;45.116;21.296;2023-01-13T08:46:56;49.50;;;35.00;;
54921;SDS011;40824;45.116;21.296;2023-01-13T08:49:23;46.25;;;32.45;;
54921;SDS011;40824;45.116;21.296;2023-01-13T08:51:50;45.05;;;33.30;;
54921;SDS011;40824;45.116;21.296;2023-01-13T08:54:16;42.25;;;32.53;;
54921;SDS011;40824;45.116;21.296;2023-01-13T08:56:43;43.45;;;32.50;;
54921;SDS011;40824;45.116;21.296;2023-01-13T08:59:13;50.65;;;37.95;;
54921;SDS011;40824;45.116;21.296;2023-01-13T09:01:39;48.17;;;34.92;;
54921;SDS011;40824;45.116;21.296;2023-01-13T09:04:13;49.25;;;35.55;;
54921;SDS011;40824;45.116;21.296;2023-01-13T09:06:40;54.75;;;36.17;;
54921;SDS011;40824;45.116;21.296;2023-01-13T09:09:06;51.08;;;37.50;;
54921;SDS011;40824;45.116;21.296;2023-01-13T09:11:33;46.17;;;33.80;;
54921;SDS011;40824;45.116;21.296;2023-01-13T09:14:22;51.10;;;35.90;;
54921;SDS011;40824;45.116;21.296;2023-01-13T09:16:49;49.63;;;35.28;;
54921;SDS011;40824;45.116;21.296;2023-01-13T09:19:15;52.08;;;35.72;;
54921;SDS011;40824;45.116;21.296;2023-01-13T09:21:41;51.85;;;36.05;;
54921;SDS011;40824;45.116;21.296;2023-01-13T09:24:07;51.88;;;38.10;;
54921;SDS011;40824;45.116;21.296;2023-01-13T09:26:34;53.53;;;36.35;;
54921;SDS011;40824;45.116;21.296;2023-01-13T09:29:00;56.63;;;38.05;;
54921;SDS011;40824;45.116;21.296;2023-01-13T09:31:26;45.88;;;33.40;;
54921;SDS011;40824;45.116;21.296;2023-01-13T09:33:52;37.83;;;29.65;;
54921;SDS011;40824;45.116;21.296;2023-01-13T09:36:37;42.97;;;32.92;;
54921;SDS011;40824;45.116;21.296;2023-01-13T09:39:04;42.65;;;29.35;;
54921;SDS011;40824;45.116;21.296;2023-01-13T09:41:30;40.95;;;28.65;;
54921;SDS011;40824;45.116;21.296;2023-01-13T09:44:18;41.22;;;29.88;;
54921;SDS011;40824;45.116;21.296;2023-01-13T09:46:46;37.20;;;29.10;;
54921;SDS011;40824;45.116;21.296;2023-01-13T09:49:23;38.92;;;28.65;;
54921;SDS011;40824;45.116;21.296;2023-01-13T09:51:54;39.00;;;30.98;;
54921;SDS011;40824;45.116;21.296;2023-01-13T09:54:41;41.88;;;31.70;;
54921;SDS011;40824;45.116;21.296;2023-01-13T09:57:14;47.17;;;33.75;;
54921;SDS011;40824;45.116;21.296;2023-01-13T09:59:42;40.17;;;29.40;;
54921;SDS011;40824;45.116;21.296;2023-01-13T10:05:09;45.72;;;34.83;;
54921;SDS011;40824;45.116;21.296;2023-01-13T10:07:38;41.97;;;30.00;;
54921;SDS011;40824;45.116;21.296;2023-01-13T10:10:07;40.33;;;30.10;;
54921;SDS011;40824;45.116;21.296;2023-01-13T10:12:35;46.05;;;33.70;;
54921;SDS011;40824;45.116;21.296;2023-01-13T10:15:21;44.50;;;30.92;;
54921;SDS011;40824;45.116;21.296;2023-01-13T10:17:49;45.13;;;31.35;;
54921;SDS011;40824;45.116;21.296;2023-01-13T10:20:42;50.28;;;31.67;;
54921;SDS011;40824;45.116;21.296;2023-01-13T10:28:13;40.35;;;27.63;;
54921;SDS011;40824;45.116;21.296;2023-01-13T10:30:40;39.70;;;28.13;;
54921;SDS011;40824;45.116;21.296;2023-01-13T10:33:11;39.70;;;28.05;;
54921;SDS011;40824;45.116;21.296;2023-01-13T10:41:15;40.75;;;28.92;;
54921;SDS011;40824;45.116;21.296;2023-01-13T10:43:36;39.03;;;27.67;;
54921;SDS011;40824;45.116;21.296;2023-01-13T10:46:04;41.83;;;28.55;;
54921;SDS011;40824;45.116;21.296;2023-01-13T10:49:23;49.95;;;31.63;;
54921;SDS011;40824;45.116;21.296;2023-01-13T10:54:01;48.50;;;31.77;;
54921;SDS011;40824;45.116;21.296;2023-01-13T10:56:40;43.38;;;28.45;;
54921;SDS011;40824;45.116;21.296;2023-01-13T10:59:14;40.47;;;28.00;;
54921;SDS011;40824;45.116;21.296;2023-01-13T11:01:41;53.63;;;35.78;;
54921;SDS011;40824;45.116;21.296;2023-01-13T11:06:53;36.75;;;29.10;;
54921;SDS011;40824;45.116;21.296;2023-01-13T11:09:19;37.97;;;26.98;;
54921;SDS011;40824;45.116;21.296;2023-01-13T11:11:46;40.88;;;27.55;;
54921;SDS011;40824;45.116;21.296;2023-01-13T11:14:31;38.72;;;28.10;;
54921;SDS011;40824;45.116;21.296;2023-01-13T11:19:53;37.67;;;28.63;;
54921;SDS011;40824;45.116;21.296;2023-01-13T11:22:22;36.35;;;27.45;;
54921;SDS011;40824;45.116;21.296;2023-01-13T11:27:16;33.38;;;27.92;;
54921;SDS011;40824;45.116;21.296;2023-01-13T11:29:52;32.35;;;26.80;;
54921;SDS011;40824;45.116;21.296;2023-01-13T11:32:23;29.15;;;23.10;;
54921;SDS011;40824;45.116;21.296;2023-01-13T11:35:13;32.85;;;24.75;;
54921;SDS011;40824;45.116;21.296;2023-01-13T11:37:39;28.20;;;23.67;;
54921;SDS011;40824;45.116;21.296;2023-01-13T11:40:10;29.77;;;25.42;;
54921;SDS011;40824;45.116;21.296;2023-01-13T11:45:23;26.15;;;22.25;;
54921;SDS011;40824;45.116;21.296;2023-01-13T11:47:54;30.35;;;23.65;;
54921;SDS011;40824;45.116;21.296;2023-01-13T11:55:51;27.67;;;22.63;;
54921;SDS011;40824;45.116;21.296;2023-01-13T12:01:12;30.95;;;24.38;;
54921;SDS011;40824;45.116;21.296;2023-01-13T12:03:47;31.77;;;24.08;;
54921;SDS011;40824;45.116;21.296;2023-01-13T12:09:36;26.13;;;22.73;;
54921;SDS011;40824;45.116;21.296;2023-01-13T12:17:12;26.00;;;21.35;;
54921;SDS011;40824;45.116;21.296;2023-01-13T12:19:40;26.40;;;21.48;;
54921;SDS011;40824;45.116;21.296;2023-01-13T12:29:42;25.05;;;21.13;;
54921;SDS011;40824;45.116;21.296;2023-01-13T12:32:13;25.58;;;21.70;;
54921;SDS011;40824;45.116;21.296;2023-01-13T12:34:56;25.20;;;21.00;;
54921;SDS011;40824;45.116;21.296;2023-01-13T12:45:30;31.55;;;26.20;;
54921;SDS011;40824;45.116;21.296;2023-01-13T12:47:56;28.77;;;22.13;;
54921;SDS011;40824;45.116;21.296;2023-01-13T12:52:55;30.73;;;21.77;;
54921;SDS011;40824;45.116;21.296;2023-01-13T13:10:33;32.85;;;22.48;;
54921;SDS011;40824;45.116;21.296;2023-01-13T13:13:04;27.60;;;21.15;;
54921;SDS011;40824;45.116;21.296;2023-01-13T13:15:49;30.08;;;23.50;;
54921;SDS011;40824;45.116;21.296;2023-01-13T13:20:55;37.03;;;27.00;;
54921;SDS011;40824;45.116;21.296;2023-01-13T13:26:02;27.98;;;22.70;;
54921;SDS011;40824;45.116;21.296;2023-01-13T13:28:31;33.05;;;25.48;;
54921;SDS011;40824;45.116;21.296;2023-01-13T13:31:10;30.65;;;25.33;;
54921;SDS011;40824;45.116;21.296;2023-01-13T13:39:25;34.35;;;25.17;;
54921;SDS011;40824;45.116;21.296;2023-01-13T13:42:21;32.40;;;23.63;;
54921;SDS011;40824;45.116;21.296;2023-01-13T13:45:19;29.90;;;23.20;;
54921;SDS011;40824;45.116;21.296;2023-01-13T13:50:49;31.92;;;23.30;;
54921;SDS011;40824;45.116;21.296;2023-01-13T13:53:19;31.40;;;25.27;;
54921;SDS011;40824;45.116;21.296;2023-01-13T13:55:52;36.70;;;25.55;;
54921;SDS011;40824;45.116;21.296;2023-01-13T13:58:19;36.50;;;24.40;;
54921;SDS011;40824;45.116;21.296;2023-01-13T14:00:50;31.45;;;23.92;;
54921;SDS011;40824;45.116;21.296;2023-01-13T14:03:37;35.97;;;26.42;;
54921;SDS011;40824;45.116;21.296;2023-01-13T14:06:03;43.80;;;28.27;;
54921;SDS011;40824;45.116;21.296;2023-01-13T14:08:32;43.80;;;32.63;;
54921;SDS011;40824;45.116;21.296;2023-01-13T14:10:59;47.53;;;33.88;;
54921;SDS011;40824;45.116;21.296;2023-01-13T14:13:26;52.78;;;36.97;;
54921;SDS011;40824;45.116;21.296;2023-01-13T14:16:00;47.65;;;31.90;;
54921;SDS011;40824;45.116;21.296;2023-01-13T14:23:20;40.40;;;28.13;;
54921;SDS011;40824;45.116;21.296;2023-01-13T14:25:48;44.75;;;33.30;;
54921;SDS011;40824;45.116;21.296;2023-01-13T14:30:44;35.83;;;27.88;;
54921;SDS011;40824;45.116;21.296;2023-01-13T14:33:13;41.47;;;29.83;;
54921;SDS011;40824;45.116;21.296;2023-01-13T14:36:02;44.33;;;32.72;;
54921;SDS011;40824;45.116;21.296;2023-01-13T14:38:26;41.13;;;29.42;;
54921;SDS011;40824;45.116;21.296;2023-01-13T14:40:52;52.35;;;36.13;;
54921;SDS011;40824;45.116;21.296;2023-01-13T14:43:18;66.50;;;39.03;;
54921;SDS011;40824;45.116;21.296;2023-01-13T14:48:23;76.75;;;46.45;;
54921;SDS011;40824;45.116;21.296;2023-01-13T14:50:56;60.80;;;39.25;;
54921;SDS011;40824;45.116;21.296;2023-01-13T14:53:36;52.10;;;36.20;;
54921;SDS011;40824;45.116;21.296;2023-01-13T14:58:47;45.00;;;30.77;;
54921;SDS011;40824;45.116;21.296;2023-01-13T15:03:52;35.80;;;25.23;;
54921;SDS011;40824;45.116;21.296;2023-01-13T15:06:20;36.72;;;26.08;;
54921;SDS011;40824;45.116;21.296;2023-01-13T15:08:47;38.33;;;25.70;;
54921;SDS011;40824;45.116;21.296;2023-01-13T15:11:24;34.03;;;23.90;;
54921;SDS011;40824;45.116;21.296;2023-01-13T15:13:57;36.03;;;25.67;;
54921;SDS011;40824;45.116;21.296;2023-01-13T15:16:25;47.60;;;32.05;;
54921;SDS011;40824;45.116;21.296;2023-01-13T15:18:53;43.47;;;31.15;;
54921;SDS011;40824;45.116;21.296;2023-01-13T15:21:19;41.20;;;29.73;;
54921;SDS011;40824;45.116;21.296;2023-01-13T15:23:45;32.85;;;23.55;;
54921;SDS011;40824;45.116;21.296;2023-01-13T15:26:24;36.65;;;24.38;;
54921;SDS011;40824;45.116;21.296;2023-01-13T15:28:51;31.05;;;21.73;;
54921;SDS011;40824;45.116;21.296;2023-01-13T15:31:18;29.25;;;22.20;;
54921;SDS011;40824;45.116;21.296;2023-01-13T15:33:44;28.52;;;21.60;;
54921;SDS011;40824;45.116;21.296;2023-01-13T15:36:27;28.17;;;19.50;;
54921;SDS011;40824;45.116;21.296;2023-01-13T15:38:54;26.00;;;18.95;;
54921;SDS011;40824;45.116;21.296;2023-01-13T15:41:22;21.23;;;15.88;;
54921;SDS011;40824;45.116;21.296;2023-01-13T15:44:09;23.15;;;17.08;;
54921;SDS011;40824;45.116;21.296;2023-01-13T15:46:54;19.58;;;15.18;;
54921;SDS011;40824;45.116;21.296;2023-01-13T15:51:47;20.38;;;14.57;;
54921;SDS011;40824;45.116;21.296;2023-01-13T15:54:14;20.38;;;13.93;;
54921;SDS011;40824;45.116;21.296;2023-01-13T15:56:40;22.42;;;15.05;;
54921;SDS011;40824;45.116;21.296;2023-01-13T15:59:13;20.20;;;13.77;;
54921;SDS011;40824;45.116;21.296;2023-01-13T16:01:40;21.60;;;13.52;;
54921;SDS011;40824;45.116;21.296;2023-01-13T16:04:07;22.63;;;13.20;;
54921;SDS011;40824;45.116;21.296;2023-01-13T16:06:33;21.55;;;14.32;;
54921;SDS011;40824;45.116;21.296;2023-01-13T16:09:02;21.83;;;15.25;;
54921;SDS011;40824;45.116;21.296;2023-01-13T16:11:28;18.25;;;12.70;;
54921;SDS011;40824;45.116;21.296;2023-01-13T16:13:54;17.02;;;12.05;;
54921;SDS011;40824;45.116;21.296;2023-01-13T16:16:21;17.88;;;13.02;;
54921;SDS011;40824;45.116;21.296;2023-01-13T16:18:48;19.77;;;12.25;;
54921;SDS011;40824;45.116;21.296;2023-01-13T16:21:15;18.63;;;12.75;;
54921;SDS011;40824;45.116;21.296;2023-01-13T16:23:43;19.92;;;13.10;;
54921;SDS011;40824;45.116;21.296;2023-01-13T16:26:22;18.45;;;13.07;;
54921;SDS011;40824;45.116;21.296;2023-01-13T16:28:49;20.27;;;12.55;;
54921;SDS011;40824;45.116;21.296;2023-01-13T16:31:17;19.92;;;13.55;;
54921;SDS011;40824;45.116;21.296;2023-01-13T16:33:43;23.17;;;15.52;;
54921;SDS011;40824;45.116;21.296;2023-01-13T16:36:13;26.40;;;17.35;;
54921;SDS011;40824;45.116;21.296;2023-01-13T16:38:40;26.17;;;17.35;;
54921;SDS011;40824;45.116;21.296;2023-01-13T16:41:06;19.10;;;14.55;;
54921;SDS011;40824;45.116;21.296;2023-01-13T16:43:32;19.98;;;13.82;;
54921;SDS011;40824;45.116;21.296;2023-01-13T16:45:58;19.98;;;14.70;;
54921;SDS011;40824;45.116;21.296;2023-01-13T16:48:25;21.52;;;13.73;;
54921;SDS011;40824;45.116;21.296;2023-01-13T16:50:51;21.63;;;15.05;;
54921;SDS011;40824;45.116;21.296;2023-01-13T16:53:19;23.20;;;14.07;;